createdAt,value
2018-12-13T00:00:41.363Z,2.62
2018-12-13T00:03:09.979Z,2.40
2018-12-13T00:05:38.479Z,2.33
2018-12-13T00:08:07.323Z,2.83
2018-12-13T00:10:38.041Z,2.30
2018-12-13T00:13:06.268Z,2.17
2018-12-13T00:15:35.755Z,2.43
2018-12-13T00:18:04.727Z,2.27
2018-12-13T00:20:34.459Z,2.00
2018-12-13T00:23:04.304Z,2.43
2018-12-13T00:25:33.419Z,2.93
2018-12-13T00:28:02.000Z,2.83
2018-12-13T00:30:30.399Z,2.80
2018-12-13T00:32:58.611Z,2.50
2018-12-13T00:35:27.776Z,3.02
2018-12-13T00:37:56.054Z,2.60
2018-12-13T00:40:25.318Z,2.53
2018-12-13T00:42:54.103Z,2.43
2018-12-13T00:45:22.443Z,2.23
2018-12-13T00:47:50.695Z,2.13
2018-12-13T00:50:20.809Z,2.20
2018-12-13T00:52:49.064Z,2.03
2018-12-13T00:55:17.443Z,1.90
2018-12-13T00:57:46.743Z,2.27
2018-12-13T01:00:15.723Z,2.30
2018-12-13T01:02:43.911Z,2.40
2018-12-13T01:05:12.803Z,2.20
2018-12-13T01:07:41.076Z,2.03
2018-12-13T01:10:09.644Z,1.87
2018-12-13T01:12:37.740Z,2.05
2018-12-13T01:15:06.163Z,2.30
2018-12-13T01:17:35.240Z,2.40
2018-12-13T01:20:03.468Z,1.90
2018-12-13T01:22:31.724Z,2.33
2018-12-13T01:25:01.050Z,2.10
2018-12-13T01:27:30.749Z,2.10
2018-12-13T01:30:01.432Z,2.47
2018-12-13T01:32:30.509Z,2.22
2018-12-13T01:34:59.579Z,2.17
2018-12-13T01:37:27.873Z,2.20
2018-12-13T01:39:55.948Z,2.43
2018-12-13T01:42:24.391Z,1.80
2018-12-13T01:44:53.223Z,1.83
2018-12-13T01:47:21.688Z,2.17
2018-12-13T01:49:49.915Z,2.17
2018-12-13T01:52:18.640Z,1.60
2018-12-13T01:54:47.243Z,2.00
2018-12-13T01:57:16.106Z,1.80
2018-12-13T01:59:44.731Z,1.90
2018-12-13T02:02:13.246Z,1.60
2018-12-13T02:04:42.331Z,1.98
2018-12-13T02:07:10.911Z,1.70
2018-12-13T02:09:40.735Z,1.83
2018-12-13T02:12:08.934Z,2.20
2018-12-13T02:14:37.156Z,2.13
2018-12-13T02:17:05.690Z,2.20
2018-12-13T02:19:34.367Z,2.20
2018-12-13T02:22:02.549Z,2.13
2018-12-13T02:24:31.502Z,2.47
2018-12-13T02:27:00.483Z,2.30
2018-12-13T02:29:28.872Z,2.13
2018-12-13T02:31:57.770Z,2.30
2018-12-13T02:34:26.003Z,2.10
2018-12-13T02:36:55.580Z,1.93
2018-12-13T02:39:24.523Z,1.93
2018-12-13T02:41:53.991Z,1.80
2018-12-13T02:44:22.908Z,1.98
2018-12-13T02:46:52.648Z,1.93
2018-12-13T02:49:22.359Z,2.20
2018-12-13T02:51:52.244Z,2.20
2018-12-13T02:54:21.443Z,1.80
2018-12-13T02:56:50.535Z,1.80
2018-12-13T02:59:20.441Z,2.30
2018-12-13T03:01:50.499Z,2.40
2018-12-13T03:04:18.726Z,2.13
2018-12-13T03:06:47.655Z,2.33
2018-12-13T03:09:15.727Z,2.17
2018-12-13T03:11:43.796Z,1.90
2018-12-13T03:14:12.834Z,2.40
2018-12-13T03:16:42.332Z,1.90
2018-12-13T03:19:10.641Z,2.17
2018-12-13T03:21:40.146Z,2.10
2018-12-13T03:24:08.279Z,2.10
2018-12-13T03:26:37.599Z,1.77
2018-12-13T03:29:06.248Z,2.03
2018-12-13T03:31:35.176Z,2.20
2018-12-13T03:34:04.084Z,1.93
2018-12-13T03:36:32.298Z,1.87
2018-12-13T03:39:00.520Z,1.73
2018-12-13T03:41:28.830Z,2.03
2018-12-13T03:43:57.350Z,1.50
2018-12-13T03:46:26.263Z,1.70
2018-12-13T03:48:55.084Z,1.83
2018-12-13T03:51:23.468Z,2.30
2018-12-13T03:53:52.285Z,2.23
2018-12-13T03:56:52.055Z,2.03
2018-12-13T03:59:20.481Z,1.93
2018-12-13T04:01:48.867Z,2.10
2018-12-13T04:04:17.646Z,1.97
2018-12-13T04:06:46.739Z,1.95
2018-12-13T04:09:14.837Z,2.07
2018-12-13T04:11:43.464Z,2.20
2018-12-13T04:14:12.404Z,2.20
2018-12-13T04:16:41.037Z,2.10
2018-12-13T04:19:09.298Z,2.50
2018-12-13T04:21:37.597Z,2.00
2018-12-13T04:24:05.749Z,1.87
2018-12-13T04:26:33.993Z,2.37
2018-12-13T04:29:02.273Z,2.00
2018-12-13T04:31:30.495Z,2.13
2018-12-13T04:33:58.583Z,2.00
2018-12-13T04:36:27.772Z,1.87
2018-12-13T04:38:56.109Z,2.10
2018-12-13T04:41:24.836Z,1.73
2018-12-13T04:43:53.627Z,1.87
2018-12-13T04:46:21.968Z,2.00
2018-12-13T04:48:50.216Z,1.90
2018-12-13T04:51:19.291Z,1.70
2018-12-13T04:53:47.507Z,2.27
2018-12-13T04:56:15.636Z,2.10
2018-12-13T04:58:43.927Z,2.40
2018-12-13T05:01:12.059Z,2.63
2018-12-13T05:03:40.295Z,2.00
2018-12-13T05:06:08.390Z,2.53
2018-12-13T05:08:36.739Z,2.13
2018-12-13T05:11:05.057Z,2.67
2018-12-13T05:13:33.898Z,2.70
2018-12-13T05:16:02.881Z,2.93
2018-12-13T05:18:30.980Z,3.00
2018-12-13T05:20:59.435Z,3.23
2018-12-13T05:23:28.368Z,3.17
2018-12-13T05:25:56.556Z,3.13
2018-12-13T05:28:24.847Z,3.40
2018-12-13T05:30:53.458Z,3.10
2018-12-13T05:33:21.921Z,3.10
2018-12-13T05:35:50.299Z,3.03
2018-12-13T05:38:18.475Z,3.00
2018-12-13T05:40:47.390Z,3.00
2018-12-13T05:43:15.618Z,3.27
2018-12-13T05:45:43.939Z,3.22
2018-12-13T05:48:12.023Z,2.97
2018-12-13T05:50:40.155Z,3.20
2018-12-13T05:53:08.317Z,3.23
2018-12-13T05:55:37.240Z,3.23
2018-12-13T05:58:05.743Z,3.87
2018-12-13T06:00:34.715Z,3.20
2018-12-13T06:03:02.920Z,3.42
2018-12-13T06:05:31.487Z,3.90
2018-12-13T06:08:00.098Z,3.90
2018-12-13T06:10:28.898Z,3.53
2018-12-13T06:12:57.055Z,3.60
2018-12-13T06:15:25.132Z,4.00
2018-12-13T06:17:53.283Z,3.60
2018-12-13T06:20:21.352Z,3.60
2018-12-13T06:22:49.487Z,3.77
2018-12-13T06:25:17.593Z,3.70
2018-12-13T06:27:45.728Z,3.60
2018-12-13T06:30:14.398Z,3.80
2018-12-13T06:32:44.319Z,3.90
2018-12-13T06:35:13.387Z,4.10
2018-12-13T06:37:41.671Z,4.47
2018-12-13T06:40:15.582Z,3.80
2018-12-13T06:42:41.131Z,3.95
2018-12-13T06:45:09.366Z,3.67
2018-12-13T06:47:38.312Z,6.20
2018-12-13T06:50:06.783Z,5.33
2018-12-13T06:52:34.931Z,4.10
2018-12-13T06:55:03.419Z,4.03
2018-12-13T06:57:31.851Z,3.40
2018-12-13T06:59:59.991Z,3.40
2018-12-13T07:02:28.280Z,3.70
2018-12-13T07:04:56.399Z,3.97
2018-12-13T07:07:24.600Z,3.97
2018-12-13T07:09:53.311Z,4.60
2018-12-13T07:12:21.456Z,4.13
2018-12-13T07:14:50.381Z,4.03
2018-12-13T07:17:18.700Z,4.43
2018-12-13T07:19:46.789Z,4.62
2018-12-13T07:22:15.162Z,3.43
2018-12-13T07:24:43.610Z,4.17
2018-12-13T07:27:11.932Z,4.30
2018-12-13T07:29:41.212Z,3.70
2018-12-13T07:32:40.299Z,4.07
2018-12-13T07:35:08.732Z,4.13
2018-12-13T07:37:37.756Z,3.77
2018-12-13T07:40:08.347Z,3.80
2018-12-13T07:42:37.129Z,4.10
2018-12-13T07:45:06.047Z,4.37
2018-12-13T07:47:34.169Z,4.30
2018-12-13T07:50:02.619Z,4.17
2018-12-13T07:52:30.946Z,4.83
2018-12-13T07:54:59.197Z,3.90
2018-12-13T07:57:27.366Z,4.57
2018-12-13T07:59:55.904Z,3.73
2018-12-13T08:02:24.434Z,4.10
2018-12-13T08:04:52.803Z,3.33
2018-12-13T08:07:22.095Z,3.60
2018-12-13T08:09:50.179Z,4.05
2018-12-13T08:12:18.925Z,4.60
2018-12-13T08:14:47.403Z,4.58
2018-12-13T08:17:16.203Z,4.53
2018-12-13T08:19:44.412Z,3.97
2018-12-13T08:22:12.827Z,3.80
2018-12-13T08:24:41.229Z,3.90
2018-12-13T08:27:09.367Z,3.83
2018-12-13T08:29:37.805Z,4.23
2018-12-13T08:32:06.140Z,4.43
2018-12-13T08:34:34.305Z,4.80
2018-12-13T08:37:02.616Z,4.93
2018-12-13T08:39:31.015Z,5.17
2018-12-13T08:41:59.095Z,4.93
2018-12-13T08:44:27.315Z,4.10
2018-12-13T08:46:55.464Z,4.10
2018-12-13T08:49:23.980Z,3.93
2018-12-13T08:51:52.341Z,4.62
2018-12-13T08:54:21.067Z,4.47
2018-12-13T08:56:50.216Z,5.17
2018-12-13T08:59:18.921Z,4.10
2018-12-13T09:01:48.723Z,4.40
2018-12-13T09:04:17.727Z,4.47
2018-12-13T09:06:47.209Z,3.67
2018-12-13T09:09:15.731Z,3.63
2018-12-13T09:11:44.123Z,3.95
2018-12-13T09:14:12.465Z,3.60
2018-12-13T09:16:41.187Z,3.75
2018-12-13T09:19:10.818Z,3.53
2018-12-13T09:21:39.075Z,3.70
2018-12-13T09:24:07.763Z,4.17
2018-12-13T09:26:36.866Z,3.80
2018-12-13T09:29:05.620Z,3.57
2018-12-13T09:31:34.678Z,3.90
2018-12-13T09:34:04.380Z,3.80
2018-12-13T09:36:34.919Z,4.30
2018-12-13T09:39:05.035Z,4.50
2018-12-13T09:41:33.515Z,4.20
2018-12-13T09:44:01.696Z,4.20
2018-12-13T09:46:30.007Z,4.73
2018-12-13T09:48:58.915Z,4.40
2018-12-13T09:51:27.012Z,4.70
2018-12-13T09:53:56.372Z,4.10
2018-12-13T09:56:25.430Z,3.53
2018-12-13T09:58:55.290Z,3.20
2018-12-13T10:01:25.311Z,2.83
2018-12-13T10:03:54.899Z,2.70
2018-12-13T10:06:23.076Z,3.00
2018-12-13T10:08:51.923Z,2.50
2018-12-13T10:11:20.190Z,2.33
2018-12-13T10:13:48.539Z,2.58
2018-12-13T10:16:16.671Z,2.75
2018-12-13T10:18:45.081Z,2.63
2018-12-13T10:21:13.334Z,2.83
2018-12-13T10:23:42.402Z,2.52
2018-12-13T10:26:10.820Z,2.37
2018-12-13T10:28:39.083Z,2.73
2018-12-13T10:31:07.412Z,2.20
2018-12-13T10:33:36.455Z,2.50
2018-12-13T10:36:05.444Z,2.80
2018-12-13T10:38:34.360Z,2.67
2018-12-13T10:41:03.761Z,2.23
2018-12-13T10:43:32.023Z,3.10
2018-12-13T10:46:00.201Z,3.20
2018-12-13T10:48:28.797Z,2.87
2018-12-13T10:50:57.738Z,2.77
2018-12-13T10:53:25.923Z,2.60
2018-12-13T10:55:55.188Z,2.93
2018-12-13T10:58:24.123Z,3.10
2018-12-13T11:00:57.951Z,2.73
2018-12-13T11:03:32.872Z,2.87
2018-12-13T11:06:01.999Z,2.70
2018-12-13T11:08:30.212Z,2.80
2018-12-13T11:10:58.928Z,2.10
2018-12-13T11:13:28.187Z,2.60
2018-12-13T11:15:59.447Z,2.53
2018-12-13T11:18:29.766Z,3.47
2018-12-13T11:20:58.435Z,2.87
2018-12-13T11:23:26.800Z,3.03
2018-12-13T11:25:54.960Z,2.20
2018-12-13T11:28:35.320Z,2.70
2018-12-13T11:31:03.519Z,2.40
2018-12-13T11:33:31.734Z,2.43
2018-12-13T11:36:00.700Z,2.30
2018-12-13T11:38:28.840Z,2.50
2018-12-13T11:40:56.966Z,2.10
2018-12-13T11:43:25.175Z,2.43
2018-12-13T11:45:53.747Z,2.33
2018-12-13T11:48:22.135Z,2.60
2018-12-13T11:50:50.425Z,2.37
2018-12-13T11:53:18.712Z,2.60
2018-12-13T11:55:47.503Z,2.20
2018-12-13T11:58:16.764Z,2.10
2018-12-13T12:00:45.319Z,2.22
2018-12-13T12:03:13.644Z,2.67
2018-12-13T12:05:42.275Z,2.45
2018-12-13T12:08:10.767Z,2.10
2018-12-13T12:10:40.347Z,2.40
2018-12-13T12:13:08.682Z,2.60
2018-12-13T12:15:37.163Z,2.63
2018-12-13T12:18:05.683Z,3.27
2018-12-13T12:20:34.434Z,2.80
2018-12-13T12:23:02.692Z,2.97
2018-12-13T12:25:32.015Z,2.43
2018-12-13T12:28:01.546Z,2.93
2018-12-13T12:30:29.683Z,2.93
2018-12-13T12:32:58.620Z,2.73
2018-12-13T12:35:26.810Z,3.43
2018-12-13T12:37:55.969Z,2.73
2018-12-13T12:40:24.184Z,3.17
2018-12-13T12:42:54.107Z,3.43
2018-12-13T12:45:22.643Z,3.00
2018-12-13T12:47:51.216Z,2.90
2018-12-13T12:50:19.331Z,2.90
2018-12-13T12:52:47.515Z,3.17
2018-12-13T12:55:15.764Z,2.53
2018-12-13T12:57:44.708Z,2.87
2018-12-13T13:00:14.688Z,2.67
2018-12-13T13:02:44.011Z,2.65
2018-12-13T13:05:12.437Z,2.63
2018-12-13T13:07:40.603Z,2.67
2018-12-13T13:10:09.433Z,3.50
2018-12-13T13:12:37.613Z,2.70
2018-12-13T13:15:06.630Z,3.20
2018-12-13T13:17:35.263Z,2.97
2018-12-13T13:20:04.389Z,2.93
2018-12-13T13:22:32.635Z,2.80
2018-12-13T13:25:00.791Z,2.43
2018-12-13T13:27:29.657Z,3.00
2018-12-13T13:29:57.847Z,2.73
2018-12-13T13:32:26.672Z,3.10
2018-12-13T13:34:54.767Z,2.67
2018-12-13T13:37:24.108Z,2.67
2018-12-13T13:39:53.653Z,2.60
2018-12-13T13:42:23.699Z,2.87
2018-12-13T13:44:56.059Z,3.10
2018-12-13T13:47:24.391Z,3.10
2018-12-13T13:49:53.399Z,2.93
2018-12-13T13:52:21.736Z,2.77
2018-12-13T13:54:50.153Z,3.47
2018-12-13T13:57:18.259Z,3.03
2018-12-13T13:59:47.307Z,2.80
2018-12-13T14:02:15.568Z,2.83
2018-12-13T14:04:45.167Z,3.10
2018-12-13T14:07:13.949Z,2.97
2018-12-13T14:09:42.945Z,2.98
2018-12-13T14:12:12.941Z,2.90
2018-12-13T14:14:41.374Z,2.50
2018-12-13T14:17:10.161Z,2.63
2018-12-13T14:19:38.397Z,2.95
2018-12-13T14:22:06.711Z,2.87
2018-12-13T14:24:36.197Z,3.10
2018-12-13T14:27:04.708Z,3.20
2018-12-13T14:29:33.252Z,2.87
2018-12-13T14:32:03.307Z,3.07
2018-12-13T14:34:32.027Z,3.40
2018-12-13T14:37:02.159Z,3.37
2018-12-13T14:39:31.268Z,3.47
2018-12-13T14:41:59.599Z,3.27
2018-12-13T14:44:27.824Z,3.05
2018-12-13T14:46:57.249Z,3.40
2018-12-13T14:49:25.354Z,3.23
2018-12-13T14:51:54.404Z,2.90
2018-12-13T14:54:23.327Z,3.10
2018-12-13T14:56:51.443Z,3.73
2018-12-13T14:59:19.920Z,3.67
2018-12-13T15:01:49.217Z,5.63
2018-12-13T15:04:17.758Z,9.27
2018-12-13T15:06:47.220Z,5.42
2018-12-13T15:09:15.475Z,5.27
2018-12-13T15:11:43.945Z,4.77
2018-12-13T15:14:12.559Z,4.00
2018-12-13T15:16:42.371Z,3.83
2018-12-13T15:19:11.275Z,4.83
2018-12-13T15:21:39.777Z,4.92
2018-12-13T15:24:08.048Z,4.50
2018-12-13T15:26:36.315Z,4.33
2018-12-13T15:29:05.156Z,3.97
2018-12-13T15:31:33.248Z,4.13
2018-12-13T15:34:01.402Z,4.17
2018-12-13T15:36:30.286Z,4.53
2018-12-13T15:38:58.555Z,4.97
2018-12-13T15:41:30.946Z,3.47
2018-12-13T15:44:00.457Z,4.30
2018-12-13T15:46:29.511Z,4.60
2018-12-13T15:48:58.367Z,4.70
2018-12-13T15:51:27.405Z,4.77
2018-12-13T15:53:55.984Z,5.00
2018-12-13T15:56:24.320Z,5.63
2018-12-13T15:58:52.519Z,5.57
2018-12-13T16:01:21.213Z,5.20
2018-12-13T16:03:50.362Z,5.43
2018-12-13T16:06:18.671Z,5.27
2018-12-13T16:08:46.807Z,4.87
2018-12-13T16:11:15.559Z,5.13
2018-12-13T16:13:44.327Z,4.23
2018-12-13T16:16:12.940Z,4.20
2018-12-13T16:18:42.055Z,4.80
2018-12-13T16:21:10.351Z,4.37
2018-12-13T16:23:39.353Z,4.83
2018-12-13T16:26:07.955Z,4.73
2018-12-13T16:28:36.228Z,4.60
2018-12-13T16:31:04.490Z,4.03
2018-12-13T16:33:33.055Z,4.47
2018-12-13T16:36:01.296Z,5.10
2018-12-13T16:38:29.562Z,5.00
2018-12-13T16:40:57.710Z,4.13
2018-12-13T16:43:25.856Z,4.20
2018-12-13T16:45:54.084Z,4.07
2018-12-13T16:48:22.334Z,5.00
2018-12-13T16:50:51.074Z,6.17
2018-12-13T16:53:20.019Z,5.90
2018-12-13T16:55:48.220Z,5.73
2018-12-13T16:58:17.459Z,4.37
2018-12-13T17:00:45.786Z,4.87
2018-12-13T17:03:29.327Z,4.60
2018-12-13T17:05:57.508Z,4.90
2018-12-13T17:08:26.577Z,5.07
2018-12-13T17:10:55.376Z,4.33
2018-12-13T17:13:23.483Z,4.62
2018-12-13T17:15:52.320Z,4.90
2018-12-13T17:18:20.437Z,4.30
2018-12-13T17:20:49.159Z,4.00
2018-12-13T17:23:17.727Z,3.80
2018-12-13T17:25:46.247Z,3.70
2018-12-13T17:28:14.691Z,3.90
2018-12-13T17:30:43.615Z,4.30
2018-12-13T17:33:12.171Z,3.73
2018-12-13T17:35:40.325Z,4.73
2018-12-13T17:38:08.580Z,16.87
2018-12-13T17:40:38.043Z,4.87
2018-12-13T17:43:06.275Z,4.77
2018-12-13T17:45:34.977Z,3.87
2018-12-13T17:48:03.312Z,4.53
2018-12-13T17:50:32.235Z,4.20
2018-12-13T17:53:00.785Z,3.97
2018-12-13T17:55:28.990Z,3.80
2018-12-13T17:57:57.666Z,3.43
2018-12-13T18:00:25.995Z,3.85
2018-12-13T18:02:54.750Z,3.40
2018-12-13T18:05:23.175Z,4.43
2018-12-13T18:07:54.671Z,4.20
2018-12-13T18:10:29.157Z,4.53
2018-12-13T18:12:53.892Z,4.57
2018-12-13T18:15:22.206Z,4.77
2018-12-13T18:17:51.087Z,3.73
2018-12-13T18:20:20.032Z,4.07
2018-12-13T18:22:48.799Z,4.13
2018-12-13T18:25:17.047Z,3.63
2018-12-13T18:27:46.138Z,5.13
2018-12-13T18:30:14.376Z,8.67
2018-12-13T18:32:43.224Z,4.30
2018-12-13T18:35:11.407Z,3.93
2018-12-13T18:37:40.560Z,3.23
2018-12-13T18:40:08.775Z,3.67
2018-12-13T18:42:38.440Z,3.83
2018-12-13T18:45:07.383Z,3.13
2018-12-13T18:47:36.572Z,4.00
2018-12-13T18:50:06.203Z,4.43
2018-12-13T18:52:34.407Z,4.90
2018-12-13T18:55:02.614Z,3.40
2018-12-13T18:57:31.383Z,3.75
2018-12-13T18:59:59.841Z,3.40
2018-12-13T19:02:28.081Z,3.30
2018-12-13T19:04:56.254Z,2.73
2018-12-13T19:07:24.406Z,3.43
2018-12-13T19:09:53.473Z,3.50
2018-12-13T19:12:21.823Z,3.85
2018-12-13T19:14:49.999Z,3.93
2018-12-13T19:17:19.244Z,3.20
2018-12-13T19:19:47.399Z,3.47
2018-12-13T19:22:15.555Z,3.70
2018-12-13T19:24:44.019Z,3.73
2018-12-13T19:27:12.291Z,3.27
2018-12-13T19:29:40.493Z,3.43
2018-12-13T19:32:08.664Z,4.30
2018-12-13T19:34:37.147Z,4.80
2018-12-13T19:37:05.397Z,4.37
2018-12-13T19:39:33.564Z,3.87
2018-12-13T19:42:01.875Z,3.77
2018-12-13T19:44:30.034Z,3.22
2018-12-13T19:46:58.935Z,4.00
2018-12-13T19:49:27.798Z,4.13
2018-12-13T19:51:56.247Z,3.40
2018-12-13T19:54:24.388Z,3.47
2018-12-13T19:56:52.764Z,3.97
2018-12-13T19:59:20.976Z,3.22
2018-12-13T20:01:49.667Z,2.57
2018-12-13T20:04:17.790Z,2.90
2018-12-13T20:06:46.804Z,3.70
2018-12-13T20:09:17.022Z,4.10
2018-12-13T20:11:47.113Z,3.90
2018-12-13T20:14:15.504Z,3.27
2018-12-13T20:16:44.111Z,3.63
2018-12-13T20:19:13.167Z,3.10
2018-12-13T20:21:41.404Z,2.60
2018-12-13T20:24:10.371Z,2.40
2018-12-13T20:26:38.548Z,2.10
2018-12-13T20:29:07.108Z,2.50
2018-12-13T20:31:35.391Z,1.97
2018-12-13T20:34:03.771Z,2.27
2018-12-13T20:36:31.991Z,2.33
2018-12-13T20:39:00.756Z,2.50
2018-12-13T20:41:28.847Z,2.70
2018-12-13T20:43:57.790Z,2.57
2018-12-13T20:46:26.402Z,2.47
2018-12-13T20:48:55.100Z,2.30
2018-12-13T20:51:23.416Z,2.62
2018-12-13T20:53:51.610Z,2.53
2018-12-13T20:56:19.872Z,2.60
2018-12-13T20:58:48.111Z,2.70
2018-12-13T21:01:16.975Z,2.10
2018-12-13T21:03:45.175Z,2.23
2018-12-13T21:06:14.735Z,2.57
2018-12-13T21:08:43.229Z,2.17
2018-12-13T21:11:11.506Z,2.30
2018-12-13T21:13:39.863Z,2.23
2018-12-13T21:16:08.351Z,2.77
2018-12-13T21:18:37.245Z,2.57
2018-12-13T21:21:05.776Z,2.67
2018-12-13T21:23:33.842Z,2.55
2018-12-13T21:26:02.778Z,2.20
2018-12-13T21:28:31.175Z,2.17
2018-12-13T21:31:00.251Z,2.47
2018-12-13T21:33:28.323Z,2.43
2018-12-13T21:35:57.429Z,2.90
2018-12-13T21:38:25.493Z,2.40
2018-12-13T21:40:53.675Z,2.50
2018-12-13T21:43:22.195Z,2.03
2018-12-13T21:45:50.523Z,1.90
2018-12-13T21:48:19.564Z,2.67
2018-12-13T21:50:47.636Z,2.53
2018-12-13T21:53:15.835Z,2.00
2018-12-13T21:55:44.236Z,2.80
2018-12-13T21:58:12.379Z,2.40
2018-12-13T22:00:40.559Z,2.20
2018-12-13T22:03:08.783Z,1.97
2018-12-13T22:05:36.967Z,1.72
2018-12-13T22:08:05.327Z,1.83
2018-12-13T22:10:34.347Z,1.83
2018-12-13T22:13:02.863Z,2.77
2018-12-13T22:15:31.767Z,2.20
2018-12-13T22:18:00.282Z,2.63
2018-12-13T22:20:28.955Z,3.70
2018-12-13T22:22:58.115Z,3.37
2018-12-13T22:25:26.260Z,3.90
2018-12-13T22:27:54.568Z,2.90
2018-12-13T22:30:22.833Z,3.53
2018-12-13T22:32:51.641Z,3.60
2018-12-13T22:35:19.883Z,3.10
2018-12-13T22:37:49.543Z,3.33
2018-12-13T22:40:17.771Z,2.97
2018-12-13T22:42:46.003Z,3.00
2018-12-13T22:45:14.496Z,2.97
2018-12-13T22:47:42.646Z,3.30
2018-12-13T22:50:11.415Z,3.13
2018-12-13T22:52:39.646Z,2.77
2018-12-13T22:55:11.943Z,3.40
2018-12-13T22:57:41.499Z,3.67
2018-12-13T23:00:10.600Z,3.10
2018-12-13T23:02:39.569Z,3.00
2018-12-13T23:05:08.059Z,3.10
2018-12-13T23:07:36.512Z,3.13
2018-12-13T23:10:04.905Z,3.07
2018-12-13T23:12:33.187Z,2.80
2018-12-13T23:15:01.423Z,2.60
2018-12-13T23:17:29.856Z,3.07
2018-12-13T23:19:58.471Z,2.67
2018-12-13T23:22:26.764Z,2.97
2018-12-13T23:24:54.905Z,2.80
2018-12-13T23:27:23.123Z,3.03
2018-12-13T23:29:51.588Z,2.80
2018-12-13T23:32:20.027Z,2.57
2018-12-13T23:34:48.199Z,2.10
2018-12-13T23:37:16.921Z,2.30
2018-12-13T23:39:45.231Z,2.40
2018-12-13T23:42:13.417Z,2.57
2018-12-13T23:44:41.683Z,2.30
2018-12-13T23:47:10.317Z,2.37
2018-12-13T23:49:38.669Z,2.10
2018-12-13T23:52:07.337Z,2.50
2018-12-13T23:54:36.106Z,2.20
2018-12-13T23:57:04.712Z,2.17
2018-12-13T23:59:32.988Z,2.00
